Aviation Digital Data Service (ADDS)

Output produced by METARs form (1928 UTC 27 May 2017)
found at http://aviationweather.gov/adds/metars/
 
KHYA 271720Z 2718/2818 02009KT P6SM SCT025 BKN040 
     FM272300 VRB03KT P6SM BKN050 
     FM280500 VRB03KT P6SM SCT040 
     FM280800 VRB03KT P6SM BKN025 
     FM281400 16004KT P6SM SCT040